• Join FlightAware (Why Join?)
  • Login
  • US Flag 
12:21AM EDT


 

Airport Tracker/Info


-or-


 

Live Flight TrackerFlight Track Log ✈ SWA3127 ✈ 02-Mar-2013 ✈ KBWI - KCLE

Flight Track Log - Related Links

Times and Time Zones

All times are in EST time to prevent confusion due to time zone crossing. See the SWA3127 flight status page for this flight to view local times or setup timezone preferences in your user account.

Time Position Orientation Groundspeed Altitude Reporting Facility
EST Latitude Longitude Course Direction KTS MPH feet Rate Location/Type
04:27PM 39.1833 -76.7000 270° West 147 169 1,800  Level Potomac TRACON
04:28PM 39.1833 -76.7833 270° West 212 244 4,300 2,820 Climbing Potomac TRACON
04:29PM 39.2000 -76.8667 284° West 262 302 7,800 3,840 Climbing Potomac TRACON
04:30PM 39.2167 -76.9667 282° West 267 307 12,000 3,240 Climbing Potomac TRACON
04:32PM 39.2722 -77.1492 292° West 319 367 17,000 1,740 Climbing Washington Center
04:33PM 39.3314 -77.2497 307° West 328 377 17,000 1,860 Level Washington Center
04:35PM 39.4394 -77.4247 309° West 345 397 22,200 2,880 Climbing Cleveland Center
04:36PM 39.5031 -77.5322 308° West 356 410 25,000 2,820 Climbing Cleveland Center
04:37PM 39.5664 -77.6425 307° West 378 435 27,900 2,460 Climbing Cleveland Center
04:38PM 39.6336 -77.7500 309° West 378 435 30,000 1,020 Climbing Cleveland Center
04:39PM 39.6969 -77.8608 307° West 378 435 30,000  Level Cleveland Center
04:40PM 39.7619 -77.9689 308° West 378 435 30,000  Level Cleveland Center
04:41PM 39.8250 -78.0800 306° West 378 435 30,000  Level Cleveland Center
04:42PM 39.8939 -78.1856 310° West 378 435 30,000  Level Cleveland Center
04:43PM 39.9628 -78.2917 310° West 383 441 30,000  Level Cleveland Center
04:44PM 40.0294 -78.3950 310° West 388 447 30,000  Level Cleveland Center
04:45PM 40.0981 -78.5014 310° West 388 447 30,000  Level Cleveland Center
04:46PM 40.1667 -78.6053 311° West 388 447 30,000  Level Cleveland Center
04:47PM 40.2353 -78.7119 310° West 388 447 30,000  Level Cleveland Center
04:48PM 40.3036 -78.8189 310° West 383 441 30,000  Level Cleveland Center
04:49PM 40.3700 -78.9289 308° West 383 441 30,000  Level Cleveland Center
04:50PM 40.4319 -79.0419 306° West 390 449 30,000  Level Cleveland Center
04:51PM 40.4961 -79.1553 307° West 390 449 30,000  Level Cleveland Center
04:52PM 40.5578 -79.2686 306° West 390 449 30,000  Level Cleveland Center
04:53PM 40.6236 -79.3794 308° West 390 449 30,000  Level Cleveland Center
04:54PM 40.6875 -79.4933 307° West 390 449 30,000  Level Cleveland Center
04:55PM 40.7489 -79.6047 306° West 384 442 30,000  Level Cleveland Center
04:56PM 40.8103 -79.7189 305° West 379 436 30,000  Level Cleveland Center
04:57PM 40.8736 -79.8308 307° West 379 436 30,000  Level Cleveland Center
04:58PM 40.9389 -79.9481 306° West 379 436 30,000 -60 Level Cleveland Center
04:59PM 41.0042 -80.0686 306° West 391 450 29,900 -3,000 Descending Cleveland Center
05:00PM 41.0672 -80.1894 305° West 397 457 24,000 -1,860 Descending Cleveland Center
05:01PM 41.1300 -80.3019 307° West 397 457 26,200  Climbing Cleveland Center
05:02PM 41.1928 -80.4147 307° West 387 445 24,000 -1,800 Descending Cleveland Center
05:03PM 41.2511 -80.5222 306° West 374 430 22,600 -2,400 Descending Cleveland Center
05:04PM 41.3139 -80.6411 305° West 380 437 19,200 -2,940 Descending Cleveland Center
05:05PM 41.3617 -80.7575 299° West 380 437 16,800 -2,400 Descending Cleveland Center
05:06PM 41.4072 -80.8739 298° West 363 418 14,500 -2,040 Descending Cleveland Center
05:07PM 41.4444 -80.9708 297° West 340 391 12,800 -2,040 Descending Cleveland Center
05:08PM 41.4753 -81.0597 295° West 313 360 11,100 -2,040 Descending Cleveland Center
05:08PM 41.4836 -81.0792 300° West 326 375 10,800 -1,140 Descending Cleveland Center
05:09PM 41.5125 -81.1600 296° West 302 348 10,000 -840 Descending Cleveland Center
05:09PM 41.5228 -81.1906 294° West 307 353 10,000  Level Cleveland Center
05:10PM 41.5014 -81.2653 249° West 287 330 10,000  Level Cleveland Center
05:10PM 41.5014 -81.2817 270° West 274 315 10,000  Level Cleveland Center
05:11PM 41.4883 -81.3675 259° West 283 326 10,000  Level Cleveland Center
05:11PM 41.4861 -81.3842 260° West 279 321 10,000  Level Cleveland Center
05:12PM 41.4644 -81.4725 252° West 302 348 10,000 -420 Level Cleveland Center
05:13PM 41.4283 -81.5689 243° Southwest 295 339 9,300 -1,020 Descending Cleveland Center
05:14PM 41.3964 -81.6572 244° Southwest 290 334 8,100 -1,380 Descending Cleveland Center
05:14PM 41.3878 -81.6764 239° Southwest 296 341 7,600 -1,920 Descending Cleveland Center
05:15PM 41.3619 -81.7478 244° Southwest 279 321 6,200 -1,620 Descending Cleveland Center
05:15PM 41.3536 -81.7669 240° Southwest 283 326 6,000 -1,500 Descending Cleveland Center
05:16PM 41.3256 -81.8328 240° Southwest 258 297 4,700 -1,440 Descending Cleveland Center
05:16PM 41.3150 -81.8519 234° Southwest 271 312 4,600 -840 Descending Cleveland Center
05:17PM 41.2811 -81.8983 226° Southwest 228 262 3,900 -960 Descending Cleveland Center
05:18PM 41.2389 -81.9583 227° Southwest 217 250 3,000 -480 Descending Cleveland Center
05:19PM 41.2483 -82.0164 282° West 169 194 3,000  Level Cleveland Center
05:20PM 41.2858 -82.0256 350° North 156 180 3,000  Level Cleveland Center
05:21PM 41.3239 -81.9906 35° Northeast 169 194 3,000  Level Cleveland Center